Time;durP1;ratioP1;P1;durP2;ratioP2;P2;SDS_P1;SDS_P2;PMS_P1;PMS_P2;Temp;Humidity;BMP_temperature;BMP_pressure;BME280_temperature;BME280_humidity;BME280_pressure;Samples;Min_cycle;Max_cycle;Signal;HPM_P1;HPM_P2
2023/07/21 00:01:24;;;;;;;10.43;6.70;;;;;;;27.96;70.99;100641.78;5058020;28;68373;-42
2023/07/21 00:03:56;;;;;;;12.73;8.77;;;;;;;27.80;73.49;100615.22;5056546;28;69262;-41
2023/07/21 00:06:27;;;;;;;19.52;10.43;;;;;;;27.97;77.52;100638.06;5055899;28;65202;-42
2023/07/21 00:08:59;;;;;;;12.38;10.88;;;;;;;27.98;77.35;100645.09;5052637;28;70195;-42
2023/07/21 00:11:30;;;;;;;26.87;11.53;;;;;;;28.03;75.44;100645.31;5057362;28;66703;-44
2023/07/21 00:14:02;;;;;;;21.20;10.63;;;;;;;27.91;78.43;100620.00;5057543;28;69830;-42
2023/07/21 00:16:34;;;;;;;15.15;10.40;;;;;;;27.99;79.65;100629.75;5054508;28;65240;-42
2023/07/21 00:19:06;;;;;;;19.30;9.93;;;;;;;28.10;79.74;100641.78;5056322;28;70609;-43
2023/07/21 00:21:38;;;;;;;30.15;9.70;;;;;;;28.23;79.34;100637.22;5055446;28;66853;-40
2023/07/21 00:24:11;;;;;;;36.70;8.27;;;;;;;28.25;78.58;100634.31;5055415;28;70089;-40
2023/07/21 00:26:42;;;;;;;10.20;8.88;;;;;;;28.10;79.11;100604.03;5057111;28;66129;-43
2023/07/21 00:29:14;;;;;;;;;;;;;;;28.23;80.07;100647.19;5057437;28;69728;-42
2023/07/21 00:31:49;;;;;;;20.20;8.45;;;;;;;28.44;78.45;100649.69;5054943;28;66254;-43
2023/07/21 00:34:24;;;;;;;16.80;9.82;;;;;;;28.46;76.83;100652.19;5054298;28;69569;-43
2023/07/21 00:36:57;;;;;;;15.55;10.75;;;;;;;28.37;78.20;100658.81;5042654;28;66311;-41
2023/07/21 00:39:29;;;;;;;18.90;11.50;;;;;;;28.22;81.18;100630.19;5051785;28;70203;-43
2023/07/21 00:42:00;;;;;;;18.30;10.13;;;;;;;28.45;79.76;100666.72;5058725;28;65317;-43
2023/07/21 00:44:35;;;;;;;30.30;9.63;;;;;;;27.94;77.37;100562.97;5055463;28;69185;-43
2023/07/21 00:47:07;;;;;;;14.90;9.80;;;;;;;28.55;79.00;100655.50;5057958;28;66377;-44
2023/07/21 00:49:39;;;;;;;13.98;9.35;;;;;;;28.34;78.97;100610.66;5051840;28;69952;-42
2023/07/21 00:52:17;;;;;;;10.82;9.00;;;;;;;28.59;74.91;100632.47;5059169;28;65314;-43
2023/07/21 00:54:49;;;;;;;9.38;8.50;;;;;;;28.76;74.63;100657.13;5051099;28;70849;-44
2023/07/21 00:57:22;;;;;;;13.20;8.48;;;;;;;28.25;73.11;100565.03;5057777;28;66506;-43
2023/07/21 00:59:53;;;;;;;15.20;8.27;;;;;;;28.84;73.06;100657.72;5054380;28;70284;-43
2023/07/21 01:02:25;;;;;;;9.85;8.15;;;;;;;28.81;72.96;100652.75;5056029;28;66705;-44
2023/07/21 01:05:01;;;;;;;16.70;8.90;;;;;;;28.90;72.85;100664.97;5058593;28;69923;-44
2023/07/21 01:07:33;;;;;;;9.68;8.07;;;;;;;28.92;72.24;100672.88;5041259;28;65689;-43
2023/07/21 01:10:05;;;;;;;8.48;7.60;;;;;;;28.72;72.25;100625.16;5060321;28;70421;-43
2023/07/21 01:12:37;;;;;;;11.32;7.20;;;;;;;28.95;71.83;100662.47;5059933;28;66270;-45
2023/07/21 01:15:09;;;;;;;;;;;;;;;28.58;73.15;100671.25;5058816;28;70488;-43
2023/07/21 01:17:41;;;;;;;8.20;7.45;;;;;;;28.96;71.66;100674.91;5055299;28;65738;-44
2023/07/21 01:20:15;;;;;;;8.35;7.53;;;;;;;28.93;72.03;100671.81;5048464;28;70486;-43
2023/07/21 01:22:52;;;;;;;7.80;7.05;;;;;;;28.93;71.88;100664.53;5050952;28;66302;-44
2023/07/21 01:25:25;;;;;;;7.63;6.93;;;;;;;28.58;71.31;100598.41;5039921;28;70452;-45
2023/07/21 01:27:58;;;;;;;8.00;6.70;;;;;;;28.42;71.22;100573.53;5057965;28;65673;-44
2023/07/21 01:30:31;;;;;;;7.85;7.07;;;;;;;28.93;71.51;100653.75;5051277;28;70617;-45
2023/07/21 01:33:04;;;;;;;8.15;7.35;;;;;;;29.11;71.59;100681.97;5039596;28;65029;-44
2023/07/21 01:35:37;;;;;;;9.38;6.78;;;;;;;28.92;71.08;100645.88;5051783;28;70343;-44
2023/07/21 01:38:12;;;;;;;8.18;6.82;;;;;;;28.51;71.47;100580.34;5059177;28;65577;-44
2023/07/21 01:40:46;;;;;;;7.40;6.72;;;;;;;29.16;70.68;100684.84;5059353;28;70244;-44
2023/07/21 01:43:18;;;;;;;7.03;6.35;;;;;;;29.10;70.94;100658.72;5052385;28;66505;-44
2023/07/21 01:45:50;;;;;;;11.35;6.60;;;;;;;29.02;70.84;100648.09;5055458;28;70622;-44
2023/07/21 01:48:21;;;;;;;7.35;6.55;;;;;;;29.19;70.59;100673.63;5051825;28;65507;-44
2023/07/21 01:50:55;;;;;;;6.83;5.87;;;;;;;28.62;71.18;100570.78;5056138;28;69813;-44
2023/07/21 01:53:29;;;;;;;7.13;6.45;;;;;;;29.09;70.42;100643.56;5055254;28;65671;-43
2023/07/21 01:56:08;;;;;;;7.18;6.47;;;;;;;28.74;70.16;100585.25;5054243;28;69943;-45
2023/07/21 01:58:42;;;;;;;7.30;6.63;;;;;;;28.70;70.63;100572.44;5054559;28;65818;-44
2023/07/21 02:01:14;;;;;;;7.47;6.65;;;;;;;29.15;70.63;100645.41;5054018;28;70582;-44
2023/07/21 02:03:49;;;;;;;7.10;6.43;;;;;;;28.68;70.20;100563.72;5056234;28;67026;-44
2023/07/21 02:06:20;;;;;;;7.28;6.57;;;;;;;29.34;70.13;100676.91;5052035;28;69963;-45
2023/07/21 02:08:52;;;;;;;7.25;6.68;;;;;;;29.33;70.11;100675.22;5053340;28;66320;-45
2023/07/21 02:11:24;;;;;;;7.35;6.85;;;;;;;29.35;70.02;100683.94;5056603;28;70032;-43
2023/07/21 02:14:08;;;;;;;7.43;6.85;;;;;;;29.38;70.26;100688.91;5052913;28;66284;-43
2023/07/21 02:16:39;;;;;;;7.82;7.13;;;;;;;29.15;70.23;100654.31;5038058;28;69248;-44
2023/07/21 02:19:12;;;;;;;7.40;6.80;;;;;;;29.40;69.89;100688.72;5053554;28;65832;-44
2023/07/21 02:21:43;;;;;;;8.15;7.40;;;;;;;29.44;70.32;100705.31;5057238;28;69758;-44
2023/07/21 02:24:15;;;;;;;7.97;6.88;;;;;;;29.37;70.02;100695.38;5053122;28;66709;-44
2023/07/21 02:26:47;;;;;;;7.05;6.47;;;;;;;29.42;69.98;100694.75;5054757;28;70255;-45
2023/07/21 02:29:18;;;;;;;;;;;;;;;29.09;71.00;100705.66;5052658;28;66074;-44
2023/07/21 02:31:50;;;;;;;7.03;6.30;;;;;;;29.45;70.01;100726.75;5054000;28;70212;-45
2023/07/21 02:34:21;;;;;;;7.00;6.50;;;;;;;29.51;70.00;100708.84;5059411;28;66587;-43
2023/07/21 02:36:53;;;;;;;7.07;6.53;;;;;;;29.52;69.96;100721.28;5057309;28;69725;-44
2023/07/21 02:39:26;;;;;;;6.70;6.10;;;;;;;29.23;69.61;100664.06;5059354;28;66520;-45
2023/07/21 02:41:59;;;;;;;6.85;6.25;;;;;;;29.58;70.17;100709.63;5062012;28;70254;-44
2023/07/21 02:44:31;;;;;;;7.60;6.85;;;;;;;29.59;69.70;100712.13;5043329;28;67425;-44
2023/07/21 02:47:02;;;;;;;7.30;6.57;;;;;;;29.61;69.70;100711.88;5048746;28;69197;-44
2023/07/21 02:49:33;;;;;;;6.55;6.10;;;;;;;29.60;69.56;100718.34;5062107;28;65891;-44
2023/07/21 02:52:06;;;;;;;6.35;5.85;;;;;;;29.35;69.54;100665.03;5050837;28;70466;-44
2023/07/21 02:54:38;;;;;;;6.88;6.05;;;;;;;29.64;70.04;100719.59;5050162;28;66092;-44
2023/07/21 02:57:09;;;;;;;6.78;6.25;;;;;;;29.54;69.97;100701.13;5049244;28;69667;-43
2023/07/21 02:59:41;;;;;;;6.60;6.07;;;;;;;29.69;69.96;100722.47;5056084;28;66690;-44
2023/07/21 03:02:14;;;;;;;6.32;5.78;;;;;;;29.73;69.27;100723.72;5066869;28;70238;-45
2023/07/21 03:04:50;;;;;;;6.70;6.00;;;;;;;29.74;69.26;100719.97;5056458;28;66519;-45
2023/07/21 03:07:22;;;;;;;;;;;;;;;29.37;71.09;100719.69;5051602;28;70278;-45
2023/07/21 03:10:02;;;;;;;6.43;5.82;;;;;;;29.72;69.68;100722.03;5056808;28;66899;-43
2023/07/21 03:12:37;;;;;;;6.72;6.05;;;;;;;29.71;69.92;100709.59;5058564;28;70706;-43
2023/07/21 03:15:19;;;;;;;7.78;6.78;;;;;;;29.77;69.63;100719.53;5046908;28;66184;-44
2023/07/21 03:17:57;;;;;;;6.97;6.38;;;;;;;29.81;69.16;100723.47;5048810;28;70533;-44
2023/07/21 03:20:32;;;;;;;6.55;5.95;;;;;;;29.80;69.49;100719.09;5059262;28;65791;-44
2023/07/21 03:23:07;;;;;;;6.35;5.78;;;;;;;29.85;69.33;100726.56;5048901;28;70392;-43
2023/07/21 03:25:46;;;;;;;6.45;5.95;;;;;;;29.83;69.26;100721.34;5056386;28;66577;-44
2023/07/21 03:28:21;;;;;;;6.25;5.72;;;;;;;29.88;69.49;100719.88;5056678;28;70635;-44
2023/07/21 03:31:01;;;;;;;6.32;5.72;;;;;;;29.38;68.83;100642.16;5055494;28;66113;-45
2023/07/21 03:33:41;;;;;;;6.93;6.43;;;;;;;29.90;68.96;100713.22;5057340;28;70728;-44
2023/07/21 03:36:20;;;;;;;6.28;5.78;;;;;;;29.93;69.32;100722.78;5058364;28;66375;-45
2023/07/21 03:38:52;;;;;;;6.43;5.90;;;;;;;29.95;69.34;100718.81;5052731;28;69323;-43
2023/07/21 03:41:24;;;;;;;7.78;5.93;;;;;;;29.95;69.11;100709.84;5059359;28;65481;-44
2023/07/21 03:43:58;;;;;;;6.43;5.80;;;;;;;29.91;69.19;100697.81;5057705;28;68915;-43
2023/07/21 03:46:35;;;;;;;6.28;5.75;;;;;;;29.98;69.21;100721.06;5059852;28;66462;-44
2023/07/21 03:49:18;;;;;;;9.27;5.82;;;;;;;29.59;68.49;100651.81;5059492;28;70426;-44
2023/07/21 03:51:55;;;;;;;6.00;5.60;;;;;;;30.01;68.94;100706.28;5055441;28;68711;-44
2023/07/21 03:54:27;;;;;;;6.80;6.20;;;;;;;30.01;68.62;100714.41;5060070;28;69768;-44
2023/07/21 03:56:59;;;;;;;6.05;5.55;;;;;;;30.03;68.74;100707.72;5054746;28;66076;-44
2023/07/21 03:59:31;;;;;;;5.88;5.47;;;;;;;29.93;68.75;100701.97;5057044;28;69843;-43
2023/07/21 04:02:03;;;;;;;6.18;5.78;;;;;;;29.98;68.31;100698.63;5053380;28;66234;-43
2023/07/21 04:04:36;;;;;;;6.60;6.10;;;;;;;30.07;68.99;100713.53;5054098;28;69517;-43
2023/07/21 04:07:07;;;;;;;6.60;6.05;;;;;;;30.04;68.42;100701.25;5056139;28;66040;-44
2023/07/21 04:09:39;;;;;;;6.47;5.97;;;;;;;29.99;68.72;100689.44;5056995;28;69188;-43
2023/07/21 04:12:10;;;;;;;;;;;;;;;29.74;69.49;100703.75;5057749;28;66673;-43
2023/07/21 04:14:42;;;;;;;6.05;5.65;;;;;;;29.95;68.58;100680.09;5049599;28;70229;-44
2023/07/21 04:17:13;;;;;;;6.68;6.03;;;;;;;30.00;68.84;100685.69;5053109;28;65832;-45
2023/07/21 04:19:45;;;;;;;5.85;5.35;;;;;;;29.47;68.24;100594.09;5051445;28;70578;-43
2023/07/21 04:22:17;;;;;;;6.03;5.47;;;;;;;30.02;68.83;100672.78;5059163;28;65770;-46
2023/07/21 04:24:49;;;;;;;6.80;6.30;;;;;;;30.11;68.46;100692.25;5051832;28;70319;-43
2023/07/21 04:27:22;;;;;;;6.32;5.72;;;;;;;30.14;68.77;100698.06;5057441;28;66246;-44
2023/07/21 04:29:53;;;;;;;6.17;5.77;;;;;;;30.12;68.09;100694.75;5058873;28;70127;-44
2023/07/21 04:32:24;;;;;;;6.03;5.55;;;;;;;30.14;68.40;100697.22;5055439;28;65406;-44
2023/07/21 04:35:00;;;;;;;5.60;5.30;;;;;;;29.99;68.39;100673.22;5059667;28;70610;-45
2023/07/21 04:37:36;;;;;;;5.70;5.28;;;;;;;30.17;68.38;100691.38;5055385;28;65641;-45
2023/07/21 04:40:10;;;;;;;6.20;5.60;;;;;;;30.19;68.44;100689.28;5052715;28;70563;-44
2023/07/21 04:42:44;;;;;;;5.75;5.35;;;;;;;30.19;68.13;100684.69;5045652;28;66430;-44
2023/07/21 04:45:16;;;;;;;5.88;5.47;;;;;;;30.20;68.58;100675.56;5045514;28;70001;-44
2023/07/21 04:48:01;;;;;;;6.35;5.85;;;;;;;30.21;68.26;100677.19;5056262;28;65386;-44
2023/07/21 04:50:37;;;;;;;6.00;5.60;;;;;;;30.23;68.25;100675.13;5056127;28;69000;-45
2023/07/21 04:53:10;;;;;;;6.57;6.07;;;;;;;30.24;67.81;100676.78;5059422;28;65625;-44
2023/07/21 04:55:41;;;;;;;7.32;6.40;;;;;;;30.27;67.90;100672.81;5052753;28;70772;-43
2023/07/21 04:58:14;;;;;;;6.57;6.07;;;;;;;30.27;68.29;100673.63;5052781;28;66045;-43
2023/07/21 05:00:46;;;;;;;7.50;6.38;;;;;;;30.28;68.36;100675.31;5053904;28;69112;-43
2023/07/21 05:03:17;;;;;;;;;;;;;;;29.94;69.53;100675.75;5055482;28;65696;-44
2023/07/21 05:05:49;;;;;;;6.32;5.88;;;;;;;30.25;68.02;100659.50;5058641;28;69541;-44
2023/07/21 05:08:25;;;;;;;6.25;5.85;;;;;;;30.30;68.47;100664.25;5054351;28;65539;-43
2023/07/21 05:11:00;;;;;;;6.75;6.20;;;;;;;30.31;68.41;100659.66;5047321;28;71273;-44
2023/07/21 05:13:32;;;;;;;6.55;5.90;;;;;;;30.28;68.42;100653.66;5054851;28;66590;-43
2023/07/21 05:16:23;;;;;;;6.97;6.37;;;;;;;30.27;68.05;100657.41;5043446;28;69268;-44
2023/07/21 05:19:06;;;;;;;6.80;6.20;;;;;;;30.31;68.07;100655.06;5052954;28;66311;-43
2023/07/21 05:21:46;;;;;;;8.23;7.15;;;;;;;30.32;68.02;100655.91;5056562;28;71887;-44
2023/07/21 05:24:41;;;;;;;8.27;6.97;;;;;;;30.33;68.20;100657.56;5037518;28;66186;-43
2023/07/21 05:27:16;;;;;;;7.10;6.40;;;;;;;30.25;67.83;100645.97;5050502;28;70117;-44
2023/07/21 05:29:54;;;;;;;7.40;6.70;;;;;;;30.15;68.33;100623.97;5053894;28;65896;-50
2023/07/21 05:32:25;;;;;;;8.00;7.18;;;;;;;30.33;68.69;100652.16;5051584;28;70522;-46
2023/07/21 05:35:13;;;;;;;8.27;6.85;;;;;;;30.21;68.10;100628.50;5053660;28;66713;-44
2023/07/21 05:37:50;;;;;;;7.30;6.60;;;;;;;29.90;68.32;100577.19;5051931;28;70759;-44
2023/07/21 05:40:21;;;;;;;7.35;6.78;;;;;;;30.33;68.66;100646.75;5054189;28;66585;-44
2023/07/21 05:42:53;;;;;;;6.75;6.15;;;;;;;30.34;68.62;100642.97;5070441;28;69821;-44
2023/07/21 05:45:25;;;;;;;6.25;5.85;;;;;;;30.36;68.74;100632.75;5053803;28;66573;-45
2023/07/21 05:47:57;;;;;;;7.05;6.47;;;;;;;30.38;68.39;100634.19;5046549;28;70429;-44
2023/07/21 05:50:37;;;;;;;8.25;6.60;;;;;;;30.36;68.43;100621.94;5054772;28;66659;-44
2023/07/21 05:53:10;;;;;;;6.40;5.90;;;;;;;30.41;68.04;100622.09;5036980;28;70288;-45
2023/07/21 05:55:42;;;;;;;6.88;6.45;;;;;;;30.41;68.35;100619.41;5061843;28;66964;-44
2023/07/21 05:58:22;;;;;;;6.70;6.18;;;;;;;30.44;68.24;100617.06;5044626;28;69645;-43
2023/07/21 06:00:55;;;;;;;7.28;5.97;;;;;;;30.45;68.11;100613.31;5050935;28;65961;-43
2023/07/21 06:03:28;;;;;;;6.57;5.90;;;;;;;30.45;68.57;100599.78;5056180;28;70144;-43
2023/07/21 06:06:00;;;;;;;7.05;6.35;;;;;;;30.49;68.30;100597.47;5056553;28;66438;-44
2023/07/21 06:08:51;;;;;;;6.22;5.82;;;;;;;30.49;68.14;100597.47;5059790;28;70050;-43
2023/07/21 06:11:41;;;;;;;6.28;5.80;;;;;;;30.28;68.45;100553.56;5060332;28;66247;-44
2023/07/21 06:14:35;;;;;;;6.88;5.38;;;;;;;30.46;68.34;100582.50;5057344;27;70185;-43
2023/07/21 06:17:19;;;;;;;6.53;6.00;;;;;;;30.56;68.51;100583.84;5054737;28;66667;-44
2023/07/21 06:19:50;;;;;;;5.90;5.50;;;;;;;30.56;68.06;100573.84;5047567;28;69946;-44
2023/07/21 06:22:22;;;;;;;6.65;6.15;;;;;;;30.57;68.37;100580.09;5074202;28;65596;-42
2023/07/21 06:24:55;;;;;;;7.68;6.40;;;;;;;30.56;68.57;100573.84;5061096;28;69161;-44
2023/07/21 06:27:27;;;;;;;8.05;6.93;;;;;;;30.60;68.38;100575.06;5057960;28;65564;-44
2023/07/21 06:29:59;;;;;;;7.18;6.68;;;;;;;30.34;67.89;100534.75;5045072;28;70296;-43
2023/07/21 06:32:40;;;;;;;7.07;6.57;;;;;;;30.10;68.21;100493.97;5058961;28;66487;-45
2023/07/21 06:35:33;;;;;;;7.10;6.60;;;;;;;30.60;68.65;100571.53;5059202;28;71312;-43
2023/07/21 06:38:23;;;;;;;7.00;6.40;;;;;;;30.56;68.17;100565.72;5042745;28;65739;-44
2023/07/21 06:41:04;;;;;;;6.93;6.43;;;;;;;30.60;68.75;100564.22;5045256;28;70184;-44
2023/07/21 06:44:14;;;;;;;7.25;6.75;;;;;;;30.42;68.90;100537.16;5035147;28;66223;-42
2023/07/21 06:47:03;;;;;;;6.75;6.25;;;;;;;30.60;68.53;100566.13;5040538;28;69390;-44
2023/07/21 06:49:55;;;;;;;8.70;6.00;;;;;;;30.58;69.02;100560.09;5051604;28;66832;-44
2023/07/21 06:52:30;;;;;;;6.70;6.20;;;;;;;30.60;68.95;100558.81;5058161;28;69950;-43
2023/07/21 06:55:02;;;;;;;5.50;5.00;;;;;;;30.59;68.72;100557.16;5055408;28;66843;-43
2023/07/21 06:57:34;;;;;;;6.45;5.93;;;;;;;30.60;68.77;100556.09;5059238;28;70739;-43
2023/07/21 07:00:07;;;;;;;8.95;6.22;;;;;;;30.59;69.03;100561.72;5054481;28;65338;-44
2023/07/21 07:02:38;;;;;;;7.60;4.82;;;;;;;30.57;69.30;100564.69;5049246;28;69609;-44
2023/07/21 07:05:10;;;;;;;6.75;5.72;;;;;;;30.58;69.22;100563.63;5053801;28;66752;-43
2023/07/21 07:07:43;;;;;;;5.63;5.28;;;;;;;30.61;69.13;100563.16;5052468;28;70238;-44
2023/07/21 07:10:14;;;;;;;10.02;5.38;;;;;;;30.46;69.67;100546.50;5054588;28;66933;-44
2023/07/21 07:12:46;;;;;;;6.07;5.40;;;;;;;30.54;69.83;100551.59;5056322;28;69510;-44
2023/07/21 07:15:17;;;;;;;6.05;4.47;;;;;;;30.49;70.08;100537.91;5060315;28;65352;-43
2023/07/21 07:17:49;;;;;;;;;;;;;;;30.24;72.21;100546.09;5043194;28;70153;-43
2023/07/21 07:20:20;;;;;;;5.50;5.03;;;;;;;30.57;70.72;100545.72;5058786;28;66611;-44
2023/07/21 07:22:52;;;;;;;5.45;5.05;;;;;;;30.58;70.73;100551.97;5059168;28;70160;-43
2023/07/21 07:25:25;;;;;;;5.55;5.20;;;;;;;30.57;70.97;100555.75;5060107;28;66907;-44
2023/07/21 07:27:57;;;;;;;6.18;5.60;;;;;;;30.60;70.50;100563.41;5044627;28;70079;-44
2023/07/21 07:30:28;;;;;;;5.05;4.70;;;;;;;30.09;70.66;100484.22;5050776;28;66402;-44
2023/07/21 07:33:00;;;;;;;6.10;5.05;;;;;;;30.60;70.71;100566.94;5056136;28;70676;-43
2023/07/21 07:35:32;;;;;;;5.45;5.00;;;;;;;30.60;70.88;100566.94;5058377;28;65967;-43
2023/07/21 07:38:04;;;;;;;5.70;5.22;;;;;;;30.61;70.34;100562.34;5045556;28;69774;-45
2023/07/21 07:40:35;;;;;;;5.90;5.28;;;;;;;30.60;70.44;100556.09;5031121;28;65636;-43
2023/07/21 07:43:08;;;;;;;6.55;5.95;;;;;;;30.61;70.72;100560.44;5056782;28;70260;-43
2023/07/21 07:45:39;;;;;;;6.07;5.55;;;;;;;30.63;70.54;100560.25;5049895;28;66373;-43
2023/07/21 07:48:11;;;;;;;6.32;5.82;;;;;;;30.55;70.76;100539.72;5051162;28;70401;-45
2023/07/21 07:50:43;;;;;;;7.07;5.50;;;;;;;30.60;70.84;100539.88;5055941;28;66808;-43
2023/07/21 07:53:14;;;;;;;5.38;4.97;;;;;;;30.60;70.95;100534.44;5053321;28;69312;-44
2023/07/21 07:55:46;;;;;;;5.78;5.18;;;;;;;30.64;70.68;100540.22;5053330;28;66516;-43
2023/07/21 07:58:18;;;;;;;5.40;4.90;;;;;;;30.18;70.99;100479.34;5056719;28;69770;-44
2023/07/21 08:00:49;;;;;;;5.68;5.28;;;;;;;30.64;70.75;100549.16;5054803;28;66209;-44
2023/07/21 08:03:20;;;;;;;5.93;4.50;;;;;;;30.53;70.57;100530.97;5056980;28;70131;-45
2023/07/21 08:05:53;;;;;;;4.65;4.35;;;;;;;30.66;70.51;100549.78;5053736;28;66122;-44
2023/07/21 08:08:24;;;;;;;5.38;4.78;;;;;;;30.66;70.52;100544.38;5050330;28;70459;-43
2023/07/21 08:10:56;;;;;;;5.28;4.72;;;;;;;30.67;70.74;100537.91;5054081;28;66904;-42
2023/07/21 08:13:27;;;;;;;4.88;4.47;;;;;;;30.64;70.49;100537.50;5058857;28;69078;-43
2023/07/21 08:15:59;;;;;;;4.18;3.92;;;;;;;30.50;70.80;100517.91;5056809;28;66785;-45
2023/07/21 08:18:31;;;;;;;5.10;4.32;;;;;;;30.67;71.06;100540.63;5057346;28;70010;-43
2023/07/21 08:21:21;;;;;;;4.35;4.03;;;;;;;30.59;71.15;100554.47;5054540;28;65313;-42
2023/07/21 08:23:54;;;;;;;6.30;4.00;;;;;;;30.55;70.99;100517.22;5056663;28;70545;-43
2023/07/21 08:26:26;;;;;;;4.10;3.80;;;;;;;30.73;70.70;100549.72;5057154;28;65643;-44
2023/07/21 08:28:57;;;;;;;3.57;3.27;;;;;;;30.70;70.93;100544.72;5059623;28;71746;-43
2023/07/21 08:31:29;;;;;;;3.85;3.65;;;;;;;30.40;70.74;100496.78;5059203;28;66388;-44
2023/07/21 08:34:01;;;;;;;4.45;3.78;;;;;;;30.68;70.49;100547.69;5056561;28;70636;-44
2023/07/21 08:36:32;;;;;;;4.50;3.90;;;;;;;30.69;70.76;100554.72;5055624;28;66260;-44
2023/07/21 08:39:24;;;;;;;5.18;4.00;;;;;;;30.58;70.78;100530.31;5056955;28;70616;-43
2023/07/21 08:41:56;;;;;;;3.90;3.60;;;;;;;30.72;70.78;100548.88;5052992;28;66435;-43
2023/07/21 08:44:30;;;;;;;4.88;4.47;;;;;;;30.59;70.48;100521.97;5054344;28;70005;-44
2023/07/21 08:47:03;;;;;;;4.72;4.25;;;;;;;30.67;70.74;100532.50;5051235;28;66341;-44
2023/07/21 08:49:36;;;;;;;3.90;3.60;;;;;;;30.34;70.34;100469.78;5057410;28;69806;-43
2023/07/21 08:52:08;;;;;;;4.20;3.90;;;;;;;30.63;70.23;100512.34;5051563;28;65528;-43
2023/07/21 08:54:40;;;;;;;4.50;4.10;;;;;;;30.70;70.77;100528.47;5055295;28;69793;-44
2023/07/21 08:57:14;;;;;;;4.68;4.28;;;;;;;30.62;70.62;100513.41;5058451;28;66440;-44
2023/07/21 08:59:46;;;;;;;5.18;4.38;;;;;;;30.75;70.47;100535.94;5055953;28;69843;-43
2023/07/21 09:02:18;;;;;;;4.45;4.05;;;;;;;30.75;70.48;100535.94;5058956;28;66964;-45
2023/07/21 09:04:49;;;;;;;5.50;4.03;;;;;;;30.74;70.25;100540.53;5058632;28;69974;-43
2023/07/21 09:07:21;;;;;;;4.50;4.10;;;;;;;30.75;70.57;100535.94;5051953;28;66934;-42
2023/07/21 09:09:52;;;;;;;4.93;4.50;;;;;;;30.74;70.38;100535.09;5055427;28;70446;-48
2023/07/21 09:12:38;;;;;;;4.75;4.45;;;;;;;30.57;70.62;100513.25;5056166;28;65896;-44
2023/07/21 09:15:11;;;;;;;4.28;3.97;;;;;;;30.07;70.51;100421.41;5057658;28;70464;-45
2023/07/21 09:17:43;;;;;;;5.30;4.85;;;;;;;30.77;70.63;100534.66;5042945;28;66262;-44
2023/07/21 09:20:15;;;;;;;4.97;4.57;;;;;;;30.75;70.39;100530.53;5048790;28;70567;-43
2023/07/21 09:22:50;;;;;;;4.88;4.47;;;;;;;30.73;70.58;100528.88;5058087;28;66011;-43
2023/07/21 09:25:22;;;;;;;5.63;5.22;;;;;;;30.68;70.70;100514.38;5058046;28;70035;-44
2023/07/21 09:27:55;;;;;;;4.90;4.50;;;;;;;30.67;70.71;100516.25;5054991;28;65924;-43
2023/07/21 09:30:27;;;;;;;5.20;4.80;;;;;;;30.76;70.31;100537.56;5060334;28;70171;-43
2023/07/21 09:32:58;;;;;;;4.88;4.57;;;;;;;30.72;70.41;100531.78;5052214;28;66094;-44
2023/07/21 09:35:30;;;;;;;4.80;4.50;;;;;;;30.76;70.64;100537.56;5040201;28;70062;-43
2023/07/21 09:38:01;;;;;;;5.35;4.85;;;;;;;30.76;70.46;100534.88;5055010;28;65106;-43
2023/07/21 09:40:33;;;;;;;5.50;5.20;;;;;;;30.67;70.28;100524.38;5050118;28;70080;-44
2023/07/21 09:43:04;;;;;;;7.32;5.00;;;;;;;30.76;70.52;100537.56;5058142;28;66191;-43
2023/07/21 09:45:42;;;;;;;5.35;4.95;;;;;;;30.76;70.29;100537.56;5058858;28;69977;-45
2023/07/21 09:48:14;;;;;;;6.38;5.88;;;;;;;30.73;70.32;100534.28;5060438;28;66589;-43
2023/07/21 09:50:47;;;;;;;6.03;5.50;;;;;;;30.78;70.06;100535.47;5061393;28;69957;-44
2023/07/21 09:53:24;;;;;;;5.97;5.57;;;;;;;30.74;70.38;100535.09;5059295;28;65481;-43
2023/07/21 09:55:57;;;;;;;6.70;6.10;;;;;;;30.25;70.22;100455.75;5061854;28;69565;-43
2023/07/21 09:58:30;;;;;;;7.07;5.82;;;;;;;30.77;70.38;100539.25;5061480;28;65351;-43
2023/07/21 10:01:04;;;;;;;6.50;6.03;;;;;;;30.71;70.05;100539.09;5059848;28;69865;-44
2023/07/21 10:03:36;;;;;;;6.57;5.97;;;;;;;30.64;70.10;100541.03;5060089;28;66454;-43
2023/07/21 10:06:09;;;;;;;5.60;5.30;;;;;;;30.76;70.43;100551.97;5057406;28;70339;-44
2023/07/21 10:08:41;;;;;;;6.90;6.30;;;;;;;30.77;70.32;100555.50;5058622;28;66309;-43
2023/07/21 10:11:12;;;;;;;;;;;;;;;30.39;71.69;100559.25;5057957;28;69981;-44
2023/07/21 10:13:46;;;;;;;6.70;6.20;;;;;;;30.69;70.36;100568.28;5056724;28;67108;-44
2023/07/21 10:16:21;;;;;;;6.90;6.40;;;;;;;30.59;70.08;100553.59;5058138;28;70347;-44
2023/07/21 10:19:20;;;;;;;10.55;6.47;;;;;;;30.36;73.01;100574.06;5057584;28;65777;-43
2023/07/21 10:21:54;;;;;;;8.88;8.18;;;;;;;29.61;74.67;100476.72;5055720;28;69931;-44
2023/07/21 10:24:32;;;;;;;10.25;9.45;;;;;;;30.27;75.71;100592.47;5059084;28;66508;-43
2023/07/21 10:27:05;;;;;;;11.80;10.07;;;;;;;29.79;76.09;100533.59;5058140;28;70024;-44
2023/07/21 10:29:37;;;;;;;12.25;11.23;;;;;;;30.24;78.40;100606.44;5050901;28;66533;-44
2023/07/21 10:32:10;;;;;;;12.98;11.65;;;;;;;30.21;78.50;100622.28;5057276;28;70014;-43
2023/07/21 10:34:43;;;;;;;12.80;11.55;;;;;;;30.08;79.08;100590.75;5060976;28;65543;-44
2023/07/21 10:37:15;;;;;;;14.55;12.55;;;;;;;30.22;79.53;100619.34;5055712;28;70525;-45
2023/07/21 10:39:54;;;;;;;18.17;13.23;;;;;;;29.14;80.17;100443.84;5060931;28;65448;-45
2023/07/21 10:42:26;;;;;;;15.68;11.98;;;;;;;30.19;80.54;100622.47;5051318;28;68412;-44
2023/07/21 10:45:07;;;;;;;13.52;12.23;;;;;;;30.20;80.44;100616.03;5060008;28;66806;-44
2023/07/21 10:47:39;;;;;;;16.37;12.30;;;;;;;30.17;80.75;100619.19;5060954;28;70066;-44
2023/07/21 10:50:12;;;;;;;18.38;12.48;;;;;;;30.38;77.51;100625.25;5053798;28;66181;-44
2023/07/21 10:52:48;;;;;;;12.65;11.45;;;;;;;29.81;77.08;100520.69;5054326;28;70131;-44
2023/07/21 10:55:23;;;;;;;12.70;11.40;;;;;;;30.51;76.44;100630.56;5059840;28;66701;-44
2023/07/21 10:57:54;;;;;;;12.65;11.38;;;;;;;30.61;75.86;100638.97;5056137;28;70052;-44
2023/07/21 11:00:26;;;;;;;14.52;11.38;;;;;;;30.62;75.36;100640.63;5058895;28;65675;-44
2023/07/21 11:02:57;;;;;;;12.68;11.57;;;;;;;30.65;75.95;100640.19;5047578;28;70637;-45
2023/07/21 11:05:36;;;;;;;11.88;10.88;;;;;;;30.64;76.05;100643.91;5063423;28;65779;-44
2023/07/21 11:08:29;;;;;;;12.15;10.98;;;;;;;30.21;75.50;100568.97;5056260;28;70546;-43
2023/07/21 11:11:01;;;;;;;11.50;10.50;;;;;;;30.31;75.40;100589.31;5053059;28;65895;-45
2023/07/21 11:13:33;;;;;;;11.23;10.32;;;;;;;30.72;75.50;100662.59;5044717;28;69893;-44
2023/07/21 11:16:05;;;;;;;11.15;10.35;;;;;;;30.58;75.26;100634.00;5053917;28;66290;-45
2023/07/21 11:18:42;;;;;;;12.02;10.93;;;;;;;30.47;75.03;100621.22;5025374;28;68098;-44
2023/07/21 11:21:15;;;;;;;11.27;10.35;;;;;;;30.76;75.40;100662.13;5040695;28;65390;-45
2023/07/21 11:23:46;;;;;;;11.55;10.40;;;;;;;30.76;74.75;100668.41;5051849;28;69239;-44
2023/07/21 11:26:18;;;;;;;11.18;10.38;;;;;;;30.75;75.11;100672.13;5053403;28;66207;-44
2023/07/21 11:28:50;;;;;;;11.93;10.82;;;;;;;30.34;75.27;100605.09;5053808;28;69964;-44
2023/07/21 11:31:24;;;;;;;11.93;11.00;;;;;;;30.77;74.93;100669.22;5061745;28;66968;-44
2023/07/21 11:33:56;;;;;;;12.80;11.25;;;;;;;30.76;74.90;100675.66;5055792;28;70730;-44
2023/07/21 11:36:33;;;;;;;11.20;10.40;;;;;;;30.75;74.93;100687.56;5050301;28;65887;-45
2023/07/21 11:39:11;;;;;;;12.13;11.02;;;;;;;30.62;74.79;100647.91;5048466;28;69733;-44
2023/07/21 11:41:44;;;;;;;14.00;11.27;;;;;;;30.74;74.69;100665.09;5060016;28;66561;-44
2023/07/21 11:44:25;;;;;;;14.52;12.98;;;;;;;30.39;77.21;100640.44;5047521;28;70234;-43
2023/07/21 11:47:13;;;;;;;17.65;13.77;;;;;;;30.55;76.85;100669.63;5059685;28;65529;-43
2023/07/21 11:49:47;;;;;;;16.15;12.90;;;;;;;30.53;76.30;100685.28;5058626;28;69229;-45
2023/07/21 11:52:24;;;;;;;15.25;13.65;;;;;;;30.46;77.39;100662.88;5052884;28;66613;-45
2023/07/21 11:55:00;;;;;;;16.10;13.45;;;;;;;30.51;76.72;100660.31;5052393;28;70427;-46
2023/07/21 11:57:34;;;;;;;15.57;12.73;;;;;;;30.53;76.67;100652.78;5050574;28;66653;-43